Page Field
KFMY : now visible

Airfield :











YOU CAN JOIN US ON...

 
LOGIN :

Register | Disclaimer

   EN    FR    IT 

 









Legend :    VFR   Marginal VFR   IFR   Intensive IFR   Very Intensive IFR
Visi :
Ceiling :
>= 8 km
>= 3000ft
5 to 8 km
1000 to 3000 ft
1500m to 5 km
500 to 1000 ft
800 to 1500m
200 to 500 ft
< 800m
< 200 ft
Symbols :   Thunderstorms  Fog  Heavy snow  Heavy precipitations  Wind > 20 kt






- Airport Elevation : 17 ft


KFMY - Page Field

CURRENT METAR :
  • 202353Z 11012G20KT 10SM -RA FEW009 SCT046 23/21 A3007 RMK AO2 LTG DSNT N AND NE RAB10E33B49 SLP185 P0000 60000 T02330211 10317 20233 53025

EXPIRED METARs :
  • 202253Z AUTO 13014G20KT 10SM FEW033 SCT044 BKN055 25/22 A3004 RMK AO2 LTG DSNT SE AND NW SLP173 T02500217
  • 202153Z AUTO 09010G22KT 050V120 10SM SCT023 BKN033 BKN039 27/21 A3002 RMK AO2 LTG DSNT N-SE SLP166 T02670211
  • 202116Z AUTO 19009KT 10SM FEW032 SCT055 31/23 A3000 RMK AO2 LTG DSNT N-SE T03110228

TAF KFMY
Valid from the 21 at 00:00 until the 22 at 00:00 UTC


202329Z 2100/2124 12010KT 6SM SHRA VCTS SCT030CB BKN080
TEMPO 2100/2102 2SM TSRA BKN015CB OVC030
FM210200 11008KT P6SM VCSH SCT025 BKN080
FM211500 17010KT P6SM VCSH SCT020 BKN080
FM211800 22012KT P6SM VCTS SCT025CB BKN100
KZMA FIR / North America



MET'MAP, your aeronautical weather chart ! - Copyright ORBIFLY December 2007 - Disclaimer

ORBIFLY MET'MAP TEAM :

Programming & Development : Alexandra Zaïnal
Original concept : Baudouin d'Aumeries
Technical & hardware support : Manuel Goepfert
Assistance : Marc-Olivier Méhu

Contact : metmap@orbifly.com




SOURCES & CREDITS :

   NOAA       Earth
Advisory